createdAt,value
2023-03-21T00:01:54.081Z,66.47
2023-03-21T00:04:28.279Z,64.80
2023-03-21T00:06:56.741Z,64.50
2023-03-21T00:09:24.203Z,66.97
2023-03-21T00:11:51.149Z,62.07
2023-03-21T00:14:20.818Z,72.47
2023-03-21T00:16:52.167Z,76.13
2023-03-21T00:19:21.730Z,60.27
2023-03-21T00:22:08.817Z,67.10
2023-03-21T00:24:37.010Z,70.27
2023-03-21T00:27:26.917Z,63.37
2023-03-21T00:29:51.078Z,50.47
2023-03-21T00:32:22.151Z,54.60
2023-03-21T00:35:40.784Z,56.00
2023-03-21T00:37:37.184Z,56.87
2023-03-21T00:40:23.045Z,59.63
2023-03-21T00:42:52.439Z,64.77
2023-03-21T00:45:22.000Z,64.30
2023-03-21T00:47:49.146Z,64.60
2023-03-21T00:50:16.572Z,66.17
2023-03-21T00:52:43.807Z,64.13
2023-03-21T00:55:16.118Z,64.37
2023-03-21T00:57:47.521Z,64.40
2023-03-21T01:00:20.186Z,65.63
2023-03-21T01:03:02.705Z,64.57
2023-03-21T01:05:56.970Z,61.60
2023-03-21T01:08:31.205Z,63.83
2023-03-21T01:11:07.556Z,61.17
2023-03-21T01:13:36.458Z,62.03
2023-03-21T01:16:08.585Z,57.30
2023-03-21T01:18:38.363Z,62.70
2023-03-21T01:21:13.261Z,62.47
2023-03-21T01:23:42.395Z,63.40
2023-03-21T01:26:11.249Z,63.20
2023-03-21T01:28:40.779Z,65.37
2023-03-21T01:31:09.672Z,64.63
2023-03-21T01:33:37.036Z,63.67
2023-03-21T01:36:12.657Z,63.67
2023-03-21T01:38:42.100Z,62.27
2023-03-21T01:41:43.503Z,63.87
2023-03-21T01:45:03.962Z,64.03
2023-03-21T01:47:42.492Z,63.23
2023-03-21T01:50:23.909Z,63.30
2023-03-21T01:52:59.047Z,63.83
2023-03-21T01:55:29.123Z,61.10
2023-03-21T01:58:07.943Z,62.10
2023-03-21T02:00:46.599Z,64.13
2023-03-21T02:03:35.791Z,64.73
2023-03-21T02:06:50.236Z,65.67
2023-03-21T02:09:40.405Z,63.63
2023-03-21T02:12:13.291Z,61.03
2023-03-21T02:14:40.691Z,62.73
2023-03-21T02:17:58.532Z,63.20
2023-03-21T02:21:11.893Z,62.80
2023-03-21T02:24:14.490Z,63.83
2023-03-21T02:27:04.059Z,63.20
2023-03-21T02:30:20.176Z,64.50
2023-03-21T02:33:50.040Z,62.23
2023-03-21T02:37:23.594Z,62.23
2023-03-21T02:40:13.526Z,62.40
2023-03-21T02:43:22.595Z,62.40
2023-03-21T02:45:55.003Z,63.13
2023-03-21T02:48:51.985Z,64.03
2023-03-21T02:51:23.154Z,64.60
2023-03-21T02:54:22.176Z,63.60
2023-03-21T02:56:46.719Z,63.33
2023-03-21T02:59:16.774Z,63.67
2023-03-21T03:01:44.662Z,65.07
2023-03-21T03:04:27.425Z,66.03
2023-03-21T03:06:58.546Z,65.60
2023-03-21T03:09:52.396Z,66.40
2023-03-21T03:13:12.065Z,66.03
2023-03-21T03:15:54.145Z,69.30
2023-03-21T03:18:50.230Z,67.20
2023-03-21T03:21:46.994Z,66.43
2023-03-21T03:24:26.462Z,65.37
2023-03-21T03:27:11.238Z,65.17
2023-03-21T03:29:42.259Z,67.63
2023-03-21T03:32:30.463Z,64.20
2023-03-21T03:34:58.608Z,66.93
2023-03-21T03:37:34.555Z,64.37
2023-03-21T03:40:41.119Z,62.60
2023-03-21T03:43:48.141Z,63.23
2023-03-21T03:46:41.200Z,64.17
2023-03-21T03:49:19.607Z,63.47
2023-03-21T03:52:20.303Z,64.20
2023-03-21T03:54:54.379Z,64.37
2023-03-21T03:57:26.498Z,62.90
2023-03-21T03:59:54.703Z,63.07
2023-03-21T04:02:32.205Z,63.17
2023-03-21T04:05:04.225Z,61.97
2023-03-21T04:07:32.028Z,61.77
2023-03-21T04:10:01.531Z,60.27
2023-03-21T04:12:28.588Z,62.57
2023-03-21T04:15:22.071Z,62.57
2023-03-21T04:17:54.562Z,63.13
2023-03-21T04:20:34.172Z,66.13
2023-03-21T04:23:08.885Z,64.27
2023-03-21T04:25:42.289Z,62.87
2023-03-21T04:28:15.123Z,62.77
2023-03-21T04:31:02.522Z,62.90
2023-03-21T04:33:41.809Z,62.90
2023-03-21T04:36:18.555Z,64.03
2023-03-21T04:38:48.543Z,64.00
2023-03-21T04:41:16.932Z,64.67
2023-03-21T04:43:44.546Z,62.30
2023-03-21T04:46:12.496Z,62.97
2023-03-21T04:48:39.491Z,62.60
2023-03-21T04:51:06.886Z,63.20
2023-03-21T04:53:34.113Z,64.47
2023-03-21T04:56:01.304Z,63.40
2023-03-21T04:58:28.486Z,65.10
2023-03-21T05:00:57.377Z,63.53
2023-03-21T05:03:25.476Z,64.73
2023-03-21T05:05:52.418Z,62.17
2023-03-21T05:08:19.410Z,62.90
2023-03-21T05:10:46.384Z,61.13
2023-03-21T05:13:13.563Z,63.47
2023-03-21T05:15:40.551Z,61.83
2023-03-21T05:18:13.216Z,63.67
2023-03-21T05:20:57.401Z,61.80
2023-03-21T05:23:25.130Z,62.60
2023-03-21T05:25:52.321Z,62.77
2023-03-21T05:28:37.889Z,63.27
2023-03-21T05:31:06.082Z,62.23
2023-03-21T05:33:33.669Z,63.50
2023-03-21T05:36:00.825Z,62.73
2023-03-21T05:38:31.193Z,64.00
2023-03-21T05:40:59.190Z,62.73
2023-03-21T05:43:26.567Z,63.53
2023-03-21T05:45:54.926Z,61.17
2023-03-21T05:48:22.292Z,63.87
2023-03-21T05:51:08.173Z,62.80
2023-03-21T05:53:35.617Z,66.20
2023-03-21T05:56:03.066Z,66.10
2023-03-21T05:58:44.905Z,67.33
2023-03-21T06:01:12.259Z,66.73
2023-03-21T06:03:42.834Z,66.83
2023-03-21T06:06:16.664Z,65.63
2023-03-21T06:08:53.196Z,68.27
2023-03-21T06:11:28.156Z,64.17
2023-03-21T06:14:13.405Z,63.67
2023-03-21T06:16:42.201Z,122.30
2023-03-21T06:19:09.396Z,94.30
2023-03-21T06:21:54.520Z,66.80
2023-03-21T06:24:22.145Z,68.23
2023-03-21T06:26:49.199Z,62.10
2023-03-21T06:29:16.249Z,61.70
2023-03-21T06:31:48.098Z,60.50
2023-03-21T06:34:16.373Z,62.37
2023-03-21T06:36:44.735Z,60.57
2023-03-21T06:39:13.859Z,61.40
2023-03-21T06:41:41.575Z,61.60
2023-03-21T06:44:08.639Z,61.00
2023-03-21T06:46:44.287Z,60.97
2023-03-21T06:49:13.322Z,71.47
2023-03-21T06:51:40.277Z,61.33
2023-03-21T06:54:14.646Z,61.10
2023-03-21T06:57:02.765Z,61.13
2023-03-21T06:59:34.011Z,61.53
2023-03-21T07:02:07.461Z,62.93
2023-03-21T07:04:40.127Z,60.83
2023-03-21T07:07:12.330Z,61.67
2023-03-21T07:09:41.071Z,63.17
2023-03-21T07:12:08.812Z,63.23
2023-03-21T07:14:56.073Z,62.00
2023-03-21T07:17:23.042Z,60.10
2023-03-21T07:19:49.966Z,72.03
2023-03-21T07:22:18.820Z,63.33
2023-03-21T07:24:55.905Z,61.33
2023-03-21T07:27:26.305Z,59.97
2023-03-21T07:29:53.239Z,59.40
2023-03-21T07:32:20.498Z,59.43
2023-03-21T07:34:47.450Z,59.77
2023-03-21T07:37:16.166Z,60.17
2023-03-21T07:39:43.341Z,58.63
2023-03-21T07:42:12.368Z,52.87
2023-03-21T07:44:40.286Z,54.43
2023-03-21T07:47:07.309Z,53.80
2023-03-21T07:49:34.249Z,57.83
2023-03-21T07:52:04.314Z,56.87
2023-03-21T07:54:31.825Z,57.53
2023-03-21T07:56:59.658Z,58.87
2023-03-21T07:59:26.685Z,59.00
2023-03-21T08:01:53.683Z,58.30
2023-03-21T08:04:21.144Z,60.63
2023-03-21T08:06:48.112Z,58.80
2023-03-21T08:09:15.191Z,57.60
2023-03-21T08:11:42.104Z,58.60
2023-03-21T08:14:09.074Z,57.67
2023-03-21T08:16:36.063Z,79.27
2023-03-21T08:19:03.109Z,58.90
2023-03-21T08:21:30.194Z,59.80
2023-03-21T08:23:57.182Z,57.97
2023-03-21T08:26:26.407Z,57.97
2023-03-21T08:28:53.595Z,73.23
2023-03-21T08:31:21.874Z,60.03
2023-03-21T08:33:53.684Z,60.47
2023-03-21T08:36:25.016Z,59.30
2023-03-21T08:38:56.845Z,59.40
2023-03-21T08:41:25.967Z,57.37
2023-03-21T08:43:52.904Z,57.77
2023-03-21T08:46:20.025Z,56.60
2023-03-21T08:48:47.012Z,56.93
2023-03-21T08:51:14.081Z,57.63
2023-03-21T08:53:41.636Z,57.20
2023-03-21T08:56:09.223Z,57.67
2023-03-21T08:58:36.740Z,63.17
2023-03-21T09:01:06.960Z,62.60
2023-03-21T09:03:33.960Z,59.10
2023-03-21T09:06:03.036Z,58.90
2023-03-21T09:08:30.641Z,60.10
2023-03-21T09:10:57.995Z,59.77
2023-03-21T09:13:25.565Z,58.23
2023-03-21T09:15:54.104Z,59.87
2023-03-21T09:18:38.598Z,58.40
2023-03-21T09:21:12.794Z,58.70
2023-03-21T09:23:41.437Z,58.20
2023-03-21T09:26:09.715Z,57.33
2023-03-21T09:28:38.989Z,57.37
2023-03-21T09:31:08.359Z,61.30
2023-03-21T09:33:35.420Z,57.80
2023-03-21T09:36:03.355Z,57.60
2023-03-21T09:38:37.661Z,59.23
2023-03-21T09:41:32.867Z,58.87
2023-03-21T09:44:25.553Z,58.10
2023-03-21T09:47:05.420Z,57.90
2023-03-21T09:49:39.576Z,57.97
2023-03-21T09:52:27.080Z,59.00
2023-03-21T09:54:55.636Z,56.83
2023-03-21T09:57:34.879Z,57.50
2023-03-21T10:00:09.381Z,60.83
2023-03-21T10:03:03.043Z,56.90
2023-03-21T10:05:32.670Z,57.97
2023-03-21T10:08:24.811Z,58.07
2023-03-21T10:10:56.947Z,58.40
2023-03-21T10:13:28.776Z,57.10
2023-03-21T10:16:02.753Z,56.40
2023-03-21T10:18:31.573Z,56.33
2023-03-21T10:20:58.723Z,58.00
2023-03-21T10:23:29.104Z,58.03
2023-03-21T10:26:02.186Z,58.07
2023-03-21T10:28:50.039Z,57.83
2023-03-21T10:31:26.145Z,56.87
2023-03-21T10:33:56.514Z,58.40
2023-03-21T10:36:27.827Z,55.83
2023-03-21T10:39:05.044Z,62.30
2023-03-21T10:41:33.205Z,57.60
2023-03-21T10:44:09.547Z,57.13
2023-03-21T10:46:36.784Z,55.73
2023-03-21T10:49:07.612Z,56.43
2023-03-21T10:51:38.254Z,56.50
2023-03-21T10:54:13.807Z,56.23
2023-03-21T10:56:58.861Z,55.70
2023-03-21T10:59:35.638Z,56.80
2023-03-21T11:02:04.734Z,56.63
2023-03-21T11:04:32.837Z,57.10
2023-03-21T11:07:09.640Z,57.10
2023-03-21T11:09:50.034Z,60.33
2023-03-21T11:12:33.539Z,58.43
2023-03-21T11:15:41.868Z,60.10
2023-03-21T11:18:24.033Z,60.63
2023-03-21T11:20:58.530Z,61.67
2023-03-21T11:23:30.445Z,58.60
2023-03-21T11:26:00.722Z,56.33
2023-03-21T11:28:37.852Z,57.77
2023-03-21T11:31:06.941Z,60.80
2023-03-21T11:33:40.203Z,55.53
2023-03-21T11:36:18.171Z,55.27
2023-03-21T11:38:58.119Z,56.57
2023-03-21T11:41:34.144Z,58.43
2023-03-21T11:44:03.205Z,77.27
2023-03-21T11:46:32.508Z,57.47
2023-03-21T11:49:01.443Z,59.10
2023-03-21T11:51:50.093Z,56.83
2023-03-21T11:54:33.883Z,57.60
2023-03-21T11:57:34.050Z,56.83
2023-03-21T12:00:01.312Z,59.93
2023-03-21T12:03:14.349Z,57.13
2023-03-21T12:05:54.577Z,57.10
2023-03-21T12:09:02.093Z,69.70
2023-03-21T12:11:49.673Z,59.17
2023-03-21T12:14:16.571Z,61.53
2023-03-21T12:17:25.776Z,58.77
2023-03-21T12:19:58.721Z,58.40
2023-03-21T12:22:38.468Z,57.57
2023-03-21T12:25:23.526Z,59.47
2023-03-21T12:28:21.285Z,60.10
2023-03-21T12:31:05.914Z,61.67
2023-03-21T12:33:50.301Z,58.50
2023-03-21T12:36:38.840Z,58.93
2023-03-21T12:39:17.652Z,58.13
2023-03-21T12:41:53.754Z,58.43
2023-03-21T12:44:24.298Z,57.17
2023-03-21T12:47:00.373Z,57.47
2023-03-21T12:49:35.546Z,61.17
2023-03-21T12:52:13.161Z,59.60
2023-03-21T12:54:46.835Z,60.53
2023-03-21T12:57:34.871Z,62.83
2023-03-21T13:00:16.297Z,62.40
2023-03-21T13:03:05.424Z,60.87
2023-03-21T13:05:45.600Z,59.97
2023-03-21T13:08:30.443Z,59.60
2023-03-21T13:11:00.241Z,60.07
2023-03-21T13:13:35.410Z,63.23
2023-03-21T13:16:53.355Z,60.30
2023-03-21T13:19:37.431Z,60.37
2023-03-21T13:22:11.894Z,59.47
2023-03-21T13:24:43.862Z,60.67
2023-03-21T13:27:34.073Z,64.67
2023-03-21T13:30:19.326Z,63.70
2023-03-21T13:33:14.965Z,61.80
2023-03-21T13:35:45.462Z,59.67
2023-03-21T13:38:28.647Z,60.93
2023-03-21T13:41:03.655Z,59.93
2023-03-21T13:43:54.306Z,59.83
2023-03-21T13:46:27.228Z,59.87
2023-03-21T13:48:59.757Z,59.10
2023-03-21T13:51:52.513Z,60.60
2023-03-21T13:54:29.569Z,58.40
2023-03-21T13:57:01.254Z,59.63
2023-03-21T13:59:45.181Z,58.03
2023-03-21T14:02:12.038Z,58.93
2023-03-21T14:04:53.972Z,58.17
2023-03-21T14:07:32.442Z,57.73
2023-03-21T14:10:23.172Z,58.23
2023-03-21T14:12:51.266Z,58.43
2023-03-21T14:15:27.572Z,57.50
2023-03-21T14:17:59.978Z,58.50
2023-03-21T14:20:34.282Z,58.30
2023-03-21T14:23:13.054Z,57.23
2023-03-21T14:25:47.640Z,60.37
2023-03-21T14:28:24.386Z,61.33
2023-03-21T14:31:00.175Z,65.57
2023-03-21T14:33:41.425Z,58.00
2023-03-21T14:36:17.498Z,59.80
2023-03-21T14:38:55.226Z,57.60
2023-03-21T14:41:27.048Z,60.87
2023-03-21T14:44:26.124Z,77.87
2023-03-21T14:47:09.258Z,59.17
2023-03-21T14:49:38.354Z,59.87
2023-03-21T14:52:11.800Z,59.20
2023-03-21T14:54:45.247Z,58.07
2023-03-21T14:57:16.478Z,58.23
2023-03-21T14:59:43.585Z,57.07
2023-03-21T15:02:28.635Z,56.83
2023-03-21T15:04:58.940Z,56.80
2023-03-21T15:07:34.925Z,56.73
2023-03-21T15:10:16.476Z,55.87
2023-03-21T15:12:59.331Z,58.47
2023-03-21T15:15:29.439Z,55.75
2023-03-21T15:18:04.239Z,56.08
2023-03-21T15:20:35.573Z,55.80
2023-03-21T15:23:16.528Z,56.13
2023-03-21T15:25:44.550Z,56.63
2023-03-21T15:28:14.589Z,56.60
2023-03-21T15:30:50.250Z,56.40
2023-03-21T15:33:18.699Z,56.03
2023-03-21T15:35:55.567Z,56.50
2023-03-21T15:38:39.913Z,56.07
2023-03-21T15:41:20.467Z,56.27
2023-03-21T15:43:54.349Z,56.00
2023-03-21T15:46:48.572Z,56.63
2023-03-21T15:49:15.984Z,59.73
2023-03-21T15:51:52.532Z,57.50
2023-03-21T15:54:43.506Z,57.20
2023-03-21T15:57:24.537Z,57.23
2023-03-21T15:59:57.234Z,58.23
2023-03-21T16:02:29.698Z,57.20
2023-03-21T16:05:30.713Z,57.60
2023-03-21T16:08:28.105Z,57.53
2023-03-21T16:11:06.584Z,58.40
2023-03-21T16:13:33.583Z,58.33
2023-03-21T16:16:00.677Z,56.67
2023-03-21T16:18:29.441Z,59.67
2023-03-21T16:20:59.120Z,75.17
2023-03-21T16:23:26.694Z,57.97
2023-03-21T16:25:57.786Z,58.00
2023-03-21T16:28:25.003Z,58.00
2023-03-21T16:30:51.944Z,58.97
2023-03-21T16:33:18.869Z,60.27
2023-03-21T16:35:45.877Z,59.53
2023-03-21T16:38:14.026Z,61.10
2023-03-21T16:40:43.655Z,62.97
2023-03-21T16:43:11.548Z,62.80
2023-03-21T16:45:38.677Z,65.47
2023-03-21T16:48:06.146Z,64.90
2023-03-21T16:50:42.676Z,75.93
2023-03-21T16:53:09.675Z,84.13
2023-03-21T16:55:38.758Z,86.73
2023-03-21T16:58:06.550Z,79.13
2023-03-21T17:00:33.885Z,72.10
2023-03-21T17:03:06.223Z,66.93
2023-03-21T17:05:33.197Z,67.83
2023-03-21T17:08:02.413Z,65.13
2023-03-21T17:10:31.638Z,66.97
2023-03-21T17:12:59.248Z,68.50
2023-03-21T17:15:26.411Z,66.07
2023-03-21T17:17:55.534Z,65.33
2023-03-21T17:20:32.040Z,67.40
2023-03-21T17:22:59.787Z,74.03
2023-03-21T17:25:27.255Z,70.47
2023-03-21T17:27:54.369Z,71.10
2023-03-21T17:30:32.221Z,74.57
2023-03-21T17:32:59.853Z,80.43
2023-03-21T17:35:28.082Z,118.43
2023-03-21T17:37:58.281Z,76.87
2023-03-21T17:40:29.496Z,77.17
2023-03-21T17:42:57.928Z,77.93
2023-03-21T17:45:25.947Z,75.17
2023-03-21T17:47:55.034Z,76.53
2023-03-21T17:50:26.580Z,75.70
2023-03-21T17:52:56.428Z,85.10
2023-03-21T17:55:23.564Z,87.97
2023-03-21T17:57:50.527Z,79.47
2023-03-21T18:00:30.333Z,77.13
2023-03-21T18:02:58.003Z,84.20
2023-03-21T18:05:26.444Z,85.93
2023-03-21T18:08:09.753Z,78.43
2023-03-21T18:10:39.005Z,82.20
2023-03-21T18:13:06.215Z,80.47
2023-03-21T18:15:33.233Z,80.10
2023-03-21T18:18:00.186Z,99.73
2023-03-21T18:20:49.986Z,80.93
2023-03-21T18:23:15.497Z,99.80
2023-03-21T18:25:42.478Z,82.80
2023-03-21T18:28:12.218Z,176.87
2023-03-21T18:33:28.491Z,74.83
2023-03-21T18:35:59.779Z,74.90
2023-03-21T18:38:28.224Z,76.90
2023-03-21T18:40:55.954Z,76.53
2023-03-21T18:46:10.667Z,78.97
2023-03-21T18:48:37.758Z,102.30
2023-03-21T18:51:05.708Z,81.87
2023-03-21T18:53:32.681Z,80.00
2023-03-21T18:55:59.598Z,81.30
2023-03-21T18:58:29.004Z,84.57
2023-03-21T19:00:57.956Z,81.93
2023-03-21T19:03:35.737Z,85.43
2023-03-21T19:06:06.415Z,81.13
2023-03-21T19:08:41.786Z,87.30
2023-03-21T19:11:10.069Z,91.60
2023-03-21T19:13:37.240Z,91.63
2023-03-21T19:16:04.463Z,90.40
2023-03-21T19:18:53.842Z,89.50
2023-03-21T19:21:19.896Z,84.87
2023-03-21T19:26:34.012Z,82.13
2023-03-21T19:29:01.247Z,82.47
2023-03-21T19:31:28.257Z,80.97
2023-03-21T19:33:55.697Z,79.63
2023-03-21T19:36:23.655Z,87.57
2023-03-21T19:38:51.746Z,80.60
2023-03-21T19:41:20.392Z,78.97
2023-03-21T19:43:54.688Z,76.87
2023-03-21T19:46:25.005Z,78.57
2023-03-21T19:48:57.059Z,74.83
2023-03-21T19:51:29.315Z,74.90
2023-03-21T19:53:59.281Z,75.10
2023-03-21T19:56:27.868Z,75.77
2023-03-21T19:58:58.034Z,73.83
2023-03-21T20:01:25.480Z,75.50
2023-03-21T20:03:52.846Z,80.10
2023-03-21T20:06:22.223Z,81.90
2023-03-21T20:09:33.947Z,83.07
2023-03-21T20:11:40.575Z,82.57
2023-03-21T20:14:07.552Z,82.27
2023-03-21T20:16:36.625Z,82.40
2023-03-21T20:19:06.014Z,81.70
2023-03-21T20:21:42.214Z,81.90
2023-03-21T20:24:13.477Z,80.10
2023-03-21T20:26:40.432Z,78.10
2023-03-21T20:29:56.434Z,78.20
2023-03-21T20:31:54.399Z,75.37
2023-03-21T20:34:21.753Z,79.10
2023-03-21T20:36:48.949Z,77.03
2023-03-21T20:39:15.959Z,72.27
2023-03-21T20:41:43.109Z,71.60
2023-03-21T20:46:57.556Z,71.93
2023-03-21T20:49:24.897Z,69.17
2023-03-21T20:54:39.494Z,67.63
2023-03-21T20:57:06.486Z,70.03
2023-03-21T20:59:33.638Z,69.27
2023-03-21T21:02:00.818Z,67.27
2023-03-21T21:04:49.796Z,65.80
2023-03-21T21:07:22.424Z,67.90
2023-03-21T21:09:49.962Z,72.83
2023-03-21T21:12:19.245Z,73.70
2023-03-21T21:14:47.783Z,75.20
2023-03-21T21:17:34.056Z,75.20
2023-03-21T21:20:16.261Z,76.47
2023-03-21T21:22:59.080Z,78.93
2023-03-21T21:25:28.947Z,80.17
2023-03-21T21:27:56.131Z,75.83
2023-03-21T21:30:23.308Z,69.33
2023-03-21T21:32:50.360Z,70.37
2023-03-21T21:35:19.454Z,69.23
2023-03-21T21:37:46.539Z,71.37
2023-03-21T21:40:15.738Z,71.30
2023-03-21T21:42:44.205Z,71.70
2023-03-21T21:45:13.502Z,75.97
2023-03-21T21:47:40.756Z,69.87
2023-03-21T21:50:08.462Z,72.07
2023-03-21T21:52:37.360Z,75.57
2023-03-21T21:55:06.407Z,76.33
2023-03-21T21:57:34.590Z,80.17
2023-03-21T22:00:06.676Z,81.60
2023-03-21T22:02:39.978Z,72.67
2023-03-21T22:05:08.657Z,72.57
2023-03-21T22:07:36.342Z,72.77
2023-03-21T22:10:03.956Z,72.70
2023-03-21T22:12:30.900Z,73.17
2023-03-21T22:14:57.821Z,71.33
2023-03-21T22:17:24.974Z,66.17
2023-03-21T22:20:04.761Z,71.33
2023-03-21T22:22:34.289Z,72.23
2023-03-21T22:25:01.441Z,69.03
2023-03-21T22:27:28.386Z,70.93
2023-03-21T22:29:56.040Z,66.73
2023-03-21T22:32:23.232Z,69.43
2023-03-21T22:34:50.258Z,67.50
2023-03-21T22:37:17.186Z,67.43
2023-03-21T22:39:44.120Z,67.97
2023-03-21T22:42:11.120Z,69.60
2023-03-21T22:44:38.197Z,67.07
2023-03-21T22:47:09.087Z,68.87
2023-03-21T22:49:37.579Z,71.13
2023-03-21T22:52:06.345Z,68.37
2023-03-21T22:54:33.656Z,64.67
2023-03-21T22:57:00.605Z,66.97
2023-03-21T22:59:28.363Z,70.60
2023-03-21T23:01:56.610Z,71.73
2023-03-21T23:04:26.721Z,70.73
2023-03-21T23:06:54.301Z,72.93
2023-03-21T23:09:21.297Z,73.87
2023-03-21T23:11:49.647Z,71.57
2023-03-21T23:14:19.437Z,68.27
2023-03-21T23:16:47.987Z,70.37
2023-03-21T23:19:15.889Z,74.07
2023-03-21T23:21:44.388Z,69.57
2023-03-21T23:24:11.772Z,71.93
2023-03-21T23:26:39.375Z,74.00
2023-03-21T23:29:10.408Z,68.90
2023-03-21T23:31:37.777Z,70.07
2023-03-21T23:34:05.540Z,68.30
2023-03-21T23:36:32.618Z,72.27
2023-03-21T23:38:59.600Z,75.77
2023-03-21T23:41:26.848Z,64.87
2023-03-21T23:43:53.823Z,62.13
2023-03-21T23:46:21.309Z,76.77
2023-03-21T23:48:48.341Z,78.63
2023-03-21T23:51:17.973Z,74.43
2023-03-21T23:53:46.719Z,68.23
2023-03-21T23:56:24.022Z,73.77
2023-03-21T23:58:51.861Z,76.20
